createdAt,value
2018-12-17T00:00:16.524Z,0.00
2018-12-17T00:01:16.532Z,0.00
2018-12-17T00:02:16.310Z,0.00
2018-12-17T00:04:52.602Z,0.00
2018-12-17T00:05:48.945Z,0.00
2018-12-17T00:06:48.357Z,0.00
2018-12-17T00:07:50.088Z,0.00
2018-12-17T00:10:35.663Z,0.00
2018-12-17T00:12:56.608Z,0.00
2018-12-17T00:19:51.434Z,0.00
2018-12-17T00:21:28.608Z,0.00
2018-12-17T00:22:28.728Z,0.00
2018-12-17T00:24:26.890Z,0.00
2018-12-17T00:25:22.366Z,0.00
2018-12-17T00:26:22.413Z,0.00
2018-12-17T00:27:26.095Z,0.00
2018-12-17T00:28:23.894Z,0.00
2018-12-17T00:29:23.403Z,0.00
2018-12-17T00:30:24.097Z,0.00
2018-12-17T00:31:24.083Z,0.00
2018-12-17T00:32:23.721Z,0.00
2018-12-17T00:33:34.703Z,0.00
2018-12-17T00:35:30.053Z,0.00
2018-12-17T00:36:43.678Z,0.00
2018-12-17T00:40:39.562Z,0.00
2018-12-17T00:41:31.074Z,0.00
2018-12-17T00:42:31.042Z,0.00
2018-12-17T00:45:25.247Z,0.00
2018-12-17T00:48:48.361Z,0.00
2018-12-17T00:48:59.586Z,0.00
2018-12-17T00:51:52.648Z,0.00
2018-12-17T00:53:00.872Z,0.00
2018-12-17T00:54:50.903Z,0.00
2018-12-17T00:55:45.775Z,0.00
2018-12-17T00:56:46.275Z,0.00
2018-12-17T00:57:46.175Z,0.00
2018-12-17T00:58:45.702Z,0.00
2018-12-17T00:59:47.537Z,0.00
2018-12-17T01:00:47.557Z,0.00
2018-12-17T01:01:46.508Z,0.00
2018-12-17T01:02:45.617Z,0.00
2018-12-17T01:03:47.249Z,0.00
2018-12-17T01:04:48.220Z,0.00
2018-12-17T01:05:47.307Z,0.00
2018-12-17T01:06:47.324Z,0.00
2018-12-17T01:07:45.362Z,0.00
2018-12-17T01:08:45.187Z,0.00
2018-12-17T01:09:45.233Z,0.00
2018-12-17T01:10:46.344Z,0.00
2018-12-17T01:11:45.309Z,0.00
2018-12-17T01:12:45.351Z,0.00
2018-12-17T01:13:45.331Z,0.00
2018-12-17T01:14:46.463Z,0.00
2018-12-17T01:15:46.696Z,0.00
2018-12-17T01:16:46.695Z,0.00
2018-12-17T01:17:46.899Z,0.00
2018-12-17T01:18:48.740Z,0.00
2018-12-17T01:19:46.805Z,0.00
2018-12-17T01:20:46.873Z,0.00
2018-12-17T01:21:45.110Z,0.00
2018-12-17T01:22:46.774Z,0.00
2018-12-17T01:23:45.257Z,0.00
2018-12-17T01:24:46.775Z,0.00
2018-12-17T01:25:45.124Z,0.00
2018-12-17T01:26:46.053Z,0.00
2018-12-17T01:27:46.831Z,0.00
2018-12-17T01:28:46.675Z,0.00
2018-12-17T01:29:53.094Z,0.00
2018-12-17T01:30:57.536Z,0.00
2018-12-17T01:32:49.681Z,0.00
2018-12-17T01:46:25.766Z,0.00
2018-12-17T01:46:49.346Z,0.00
2018-12-17T01:47:49.374Z,0.00
2018-12-17T01:48:49.284Z,0.00
2018-12-17T01:49:49.223Z,0.00
2018-12-17T02:19:01.743Z,0.00
2018-12-17T02:19:27.392Z,0.00
2018-12-17T02:21:41.677Z,0.00
2018-12-17T02:22:20.019Z,0.00
2018-12-17T02:23:40.062Z,0.00
2018-12-17T02:24:20.973Z,0.00
2018-12-17T02:25:26.003Z,0.00
2018-12-17T02:26:21.663Z,0.00
2018-12-17T02:27:21.563Z,0.00
2018-12-17T02:28:19.843Z,0.00
2018-12-17T02:31:04.007Z,0.00
2018-12-17T02:33:36.044Z,0.00
2018-12-17T02:34:34.587Z,0.00
2018-12-17T02:36:10.775Z,0.00
2018-12-17T02:37:53.808Z,0.00
2018-12-17T02:38:33.187Z,0.00
2018-12-17T03:03:36.032Z,0.00
2018-12-17T03:12:43.029Z,0.00
2018-12-17T03:21:52.150Z,0.00
2018-12-17T03:24:37.987Z,0.00
2018-12-17T03:26:48.766Z,0.00
2018-12-17T03:27:48.249Z,0.00
2018-12-17T03:30:27.901Z,0.00
2018-12-17T03:31:20.117Z,0.00
2018-12-17T03:32:19.960Z,0.00
2018-12-17T03:33:20.418Z,0.00
2018-12-17T03:34:19.944Z,0.00
2018-12-17T03:35:19.620Z,0.00
2018-12-17T03:36:19.604Z,0.00
2018-12-17T03:37:19.621Z,0.00
2018-12-17T03:38:19.678Z,0.00
2018-12-17T03:39:20.720Z,0.00
2018-12-17T03:40:21.619Z,0.00
2018-12-17T03:41:19.654Z,0.00
2018-12-17T03:42:19.966Z,0.00
2018-12-17T03:43:19.775Z,0.00
2018-12-17T03:44:24.122Z,0.00
2018-12-17T03:45:21.106Z,0.00
2018-12-17T03:46:19.519Z,0.00
2018-12-17T03:47:19.649Z,0.00
2018-12-17T03:48:19.503Z,0.00
2018-12-17T03:49:19.485Z,0.00
2018-12-17T03:50:19.446Z,0.00
2018-12-17T03:51:19.394Z,0.00
2018-12-17T03:52:19.405Z,0.00
2018-12-17T03:53:19.374Z,0.00
2018-12-17T03:54:19.364Z,0.00
2018-12-17T03:55:19.465Z,0.00
2018-12-17T03:56:19.457Z,0.00
2018-12-17T03:57:19.467Z,0.00
2018-12-17T03:58:19.484Z,0.00
2018-12-17T03:59:20.189Z,0.00
2018-12-17T04:00:20.112Z,0.00
2018-12-17T04:01:19.447Z,0.00
2018-12-17T04:03:47.756Z,0.00
2018-12-17T04:17:26.757Z,0.00
2018-12-17T04:21:02.222Z,0.00
2018-12-17T04:21:54.166Z,0.00
2018-12-17T04:23:02.090Z,0.00
2018-12-17T04:24:52.494Z,0.00
2018-12-17T04:32:48.055Z,0.00
2018-12-17T04:35:15.960Z,0.00
2018-12-17T04:36:15.937Z,0.00
2018-12-17T04:37:15.840Z,0.00
2018-12-17T04:38:15.809Z,0.00
2018-12-17T04:39:15.530Z,0.00
2018-12-17T04:40:15.649Z,0.00
2018-12-17T04:41:15.501Z,0.00
2018-12-17T04:42:22.913Z,0.00
2018-12-17T04:44:09.194Z,0.00
2018-12-17T04:45:09.167Z,0.00
2018-12-17T04:47:02.621Z,0.00
2018-12-17T04:48:02.489Z,0.00
2018-12-17T04:49:56.056Z,0.00
2018-12-17T04:50:56.097Z,0.00
2018-12-17T04:52:49.065Z,0.00
2018-12-17T04:53:49.997Z,0.00
2018-12-17T04:55:42.736Z,0.00
2018-12-17T04:56:44.465Z,0.00
2018-12-17T04:58:36.100Z,0.00
2018-12-17T04:59:36.064Z,0.00
2018-12-17T05:01:28.767Z,0.00
2018-12-17T05:02:28.990Z,0.00
2018-12-17T05:03:28.674Z,0.00
2018-12-17T05:04:28.734Z,0.00
2018-12-17T05:05:28.602Z,0.00
2018-12-17T05:06:28.570Z,0.00
2018-12-17T05:07:28.558Z,0.00
2018-12-17T05:08:28.557Z,0.00
2018-12-17T05:09:28.541Z,0.00
2018-12-17T05:10:28.541Z,0.00
2018-12-17T05:11:28.556Z,0.00
2018-12-17T05:12:40.640Z,0.00
2018-12-17T05:13:40.594Z,0.00
2018-12-17T05:15:33.558Z,0.00
2018-12-17T05:16:33.447Z,0.00
2018-12-17T05:18:26.285Z,0.00
2018-12-17T05:19:26.250Z,0.00
2018-12-17T05:21:20.163Z,0.00
2018-12-17T05:22:20.084Z,0.00
2018-12-17T05:24:13.382Z,0.00
2018-12-17T05:25:13.041Z,0.00
2018-12-17T05:27:05.954Z,0.00
2018-12-17T05:28:05.745Z,0.00
2018-12-17T05:29:59.529Z,0.00
2018-12-17T05:30:59.150Z,0.00
2018-12-17T05:32:52.978Z,0.00
2018-12-17T05:33:52.855Z,0.00
2018-12-17T05:35:45.859Z,0.00
2018-12-17T05:36:45.551Z,0.00
2018-12-17T05:38:38.593Z,0.00
2018-12-17T05:39:38.520Z,0.00
2018-12-17T05:41:31.361Z,0.00
2018-12-17T05:42:31.311Z,0.00
2018-12-17T05:44:24.623Z,0.00
2018-12-17T05:45:24.595Z,0.00
2018-12-17T05:47:17.457Z,0.00
2018-12-17T05:48:24.603Z,0.00
2018-12-17T05:50:11.029Z,0.00
2018-12-17T05:51:10.721Z,0.00
2018-12-17T05:52:10.747Z,0.00
2018-12-17T05:53:10.716Z,0.00
2018-12-17T05:54:10.779Z,0.00
2018-12-17T05:55:10.622Z,0.00
2018-12-17T05:56:10.623Z,0.00
2018-12-17T05:57:10.597Z,0.00
2018-12-17T05:58:10.579Z,0.00
2018-12-17T05:59:10.618Z,0.00
2018-12-17T06:00:10.563Z,0.00
2018-12-17T06:01:10.551Z,0.00
2018-12-17T06:02:10.542Z,0.00
2018-12-17T06:03:10.530Z,0.00
2018-12-17T06:04:10.534Z,0.00
2018-12-17T06:05:10.520Z,0.00
2018-12-17T06:06:10.503Z,0.00
2018-12-17T06:07:10.519Z,0.00
2018-12-17T06:20:09.018Z,0.00
2018-12-17T06:21:08.770Z,0.00
2018-12-17T06:23:05.585Z,0.00
2018-12-17T06:24:04.028Z,0.00
2018-12-17T06:25:03.454Z,0.00
2018-12-17T06:26:03.431Z,0.00
2018-12-17T06:27:04.397Z,0.00
2018-12-17T06:28:04.425Z,0.00
2018-12-17T06:29:03.430Z,0.00
2018-12-17T06:30:03.160Z,0.00
2018-12-17T06:31:03.122Z,0.00
2018-12-17T06:32:08.206Z,0.00
2018-12-17T06:33:03.109Z,0.00
2018-12-17T06:34:03.086Z,0.00
2018-12-17T06:35:03.078Z,0.00
2018-12-17T06:36:03.072Z,0.00
2018-12-17T06:37:03.153Z,0.00
2018-12-17T06:38:03.058Z,0.00
2018-12-17T06:39:03.094Z,0.00
2018-12-17T06:40:09.999Z,0.00
2018-12-17T06:41:03.067Z,0.00
2018-12-17T06:42:03.294Z,0.00
2018-12-17T06:43:03.031Z,0.00
2018-12-17T06:44:03.021Z,0.00
2018-12-17T06:45:03.031Z,0.00
2018-12-17T06:46:03.000Z,0.00
2018-12-17T06:47:03.084Z,0.00
2018-12-17T06:48:03.750Z,0.00
2018-12-17T06:49:03.076Z,0.00
2018-12-17T06:50:04.402Z,0.00
2018-12-17T06:52:58.144Z,0.00
2018-12-17T06:53:57.808Z,0.00
2018-12-17T06:55:52.478Z,0.00
2018-12-17T06:56:51.129Z,0.00
2018-12-17T06:57:51.031Z,0.00
2018-12-17T06:58:50.812Z,0.00
2018-12-17T06:59:50.992Z,0.00
2018-12-17T07:00:50.638Z,0.00
2018-12-17T07:01:50.717Z,0.00
2018-12-17T07:02:50.579Z,0.00
2018-12-17T07:03:50.847Z,0.00
2018-12-17T07:04:52.152Z,0.00
2018-12-17T07:05:50.545Z,0.00
2018-12-17T07:06:50.539Z,0.00
2018-12-17T07:07:50.546Z,0.00
2018-12-17T07:08:50.788Z,0.00
2018-12-17T07:09:50.512Z,0.00
2018-12-17T07:10:50.503Z,0.00
2018-12-17T07:11:50.495Z,0.00
2018-12-17T07:12:50.493Z,0.00
2018-12-17T07:13:50.483Z,0.00
2018-12-17T07:14:50.470Z,0.00
2018-12-17T07:15:50.459Z,0.00
2018-12-17T07:16:50.447Z,0.00
2018-12-17T07:17:50.455Z,5.63
2018-12-17T07:18:50.434Z,5.63
2018-12-17T07:19:50.432Z,5.63
2018-12-17T07:20:50.428Z,5.63
2018-12-17T07:21:50.405Z,5.63
2018-12-17T07:22:50.397Z,5.63
2018-12-17T07:23:50.391Z,5.63
2018-12-17T07:24:50.381Z,5.63
2018-12-17T07:25:50.372Z,5.63
2018-12-17T07:26:50.370Z,5.63
2018-12-17T07:27:50.355Z,5.63
2018-12-17T07:28:50.345Z,5.63
2018-12-17T07:29:50.340Z,5.63
2018-12-17T07:30:50.334Z,5.63
2018-12-17T07:31:50.322Z,11.25
2018-12-17T07:32:50.324Z,11.25
2018-12-17T07:33:50.305Z,5.63
2018-12-17T07:34:50.291Z,11.25
2018-12-17T07:35:50.284Z,11.25
2018-12-17T07:36:50.275Z,11.25
2018-12-17T07:37:50.267Z,22.50
2018-12-17T07:38:50.264Z,22.50
2018-12-17T07:39:50.252Z,28.13
2018-12-17T07:40:50.244Z,33.75
2018-12-17T07:41:50.231Z,33.75
2018-12-17T07:42:50.225Z,33.75
2018-12-17T07:43:50.226Z,28.13
2018-12-17T07:44:50.209Z,28.13
2018-12-17T07:45:50.198Z,28.13
2018-12-17T07:46:50.191Z,28.13
2018-12-17T07:47:50.183Z,22.50
2018-12-17T07:48:50.188Z,16.88
2018-12-17T07:49:50.165Z,22.50
2018-12-17T07:50:50.154Z,28.13
2018-12-17T07:51:50.164Z,28.13
2018-12-17T07:52:50.139Z,33.75
2018-12-17T07:53:50.155Z,33.75
2018-12-17T07:54:50.123Z,33.75
2018-12-17T07:55:50.127Z,28.13
2018-12-17T07:56:50.126Z,33.75
2018-12-17T07:57:50.183Z,39.38
2018-12-17T07:58:50.088Z,39.38
2018-12-17T07:59:56.525Z,33.75
2018-12-17T08:00:50.072Z,39.38
2018-12-17T08:01:50.065Z,45.00
2018-12-17T08:02:50.056Z,61.88
2018-12-17T08:03:50.048Z,67.50
2018-12-17T08:04:50.041Z,56.25
2018-12-17T08:05:50.031Z,56.25
2018-12-17T08:06:50.024Z,67.50
2018-12-17T08:07:50.014Z,78.75
2018-12-17T08:08:50.007Z,90.00
2018-12-17T08:09:49.999Z,90.00
2018-12-17T08:10:50.004Z,90.00
2018-12-17T08:11:49.984Z,95.63
2018-12-17T08:12:49.986Z,95.63
2018-12-17T08:13:49.978Z,90.00
2018-12-17T08:14:49.960Z,112.50
2018-12-17T08:15:49.963Z,118.13
2018-12-17T08:16:49.944Z,118.13
2018-12-17T08:17:49.935Z,112.50
2018-12-17T08:18:49.969Z,112.50
2018-12-17T08:19:49.921Z,123.75
2018-12-17T08:20:49.916Z,140.63
2018-12-17T08:21:49.903Z,146.25
2018-12-17T08:22:49.906Z,118.13
2018-12-17T08:23:49.888Z,118.13
2018-12-17T08:24:49.880Z,118.13
2018-12-17T08:25:49.875Z,101.25
2018-12-17T08:26:49.864Z,84.38
2018-12-17T08:27:49.864Z,78.75
2018-12-17T08:28:49.852Z,78.75
2018-12-17T08:29:49.876Z,78.75
2018-12-17T08:30:49.839Z,67.50
2018-12-17T08:31:49.832Z,56.25
2018-12-17T08:32:49.833Z,61.88
2018-12-17T08:33:49.829Z,73.13
2018-12-17T08:34:49.814Z,73.13
2018-12-17T08:35:49.827Z,56.25
2018-12-17T08:36:49.794Z,45.00
2018-12-17T08:37:49.783Z,33.75
2018-12-17T08:38:49.803Z,33.75
2018-12-17T08:39:49.773Z,33.75
2018-12-17T08:40:49.767Z,39.38
2018-12-17T08:41:49.778Z,56.25
2018-12-17T08:42:49.747Z,56.25
2018-12-17T08:43:49.741Z,56.25
2018-12-17T08:44:49.748Z,50.63
2018-12-17T08:45:49.724Z,56.25
2018-12-17T08:46:49.718Z,67.50
2018-12-17T08:47:49.714Z,106.88
2018-12-17T08:48:49.703Z,118.13
2018-12-17T08:49:49.695Z,174.38
2018-12-17T08:50:49.686Z,180.00
2018-12-17T08:51:49.685Z,219.38
2018-12-17T08:52:49.684Z,275.63
2018-12-17T08:53:49.666Z,315.00
2018-12-17T08:54:49.670Z,146.25
2018-12-17T08:55:49.651Z,118.13
2018-12-17T08:56:49.644Z,348.75
2018-12-17T08:57:49.638Z,241.88
2018-12-17T08:58:49.627Z,483.75
2018-12-17T08:59:49.623Z,303.75
2018-12-17T09:00:49.618Z,421.88
2018-12-17T09:01:49.615Z,500.63
2018-12-17T09:02:49.606Z,540.00
2018-12-17T09:03:49.606Z,433.13
2018-12-17T09:04:49.591Z,478.13
2018-12-17T09:05:49.593Z,500.63
2018-12-17T09:06:49.580Z,444.38
2018-12-17T09:07:49.576Z,421.88
2018-12-17T09:08:49.569Z,365.63
2018-12-17T09:09:49.565Z,427.50
2018-12-17T09:10:49.561Z,427.50
2018-12-17T09:11:49.558Z,478.13
2018-12-17T09:12:49.571Z,354.38
2018-12-17T09:13:49.546Z,421.88
2018-12-17T09:14:49.546Z,309.38
2018-12-17T09:15:49.542Z,151.88
2018-12-17T09:16:49.535Z,112.50
2018-12-17T09:17:49.533Z,146.25
2018-12-17T09:18:49.527Z,151.88
2018-12-17T09:19:49.522Z,140.63
2018-12-17T09:20:49.518Z,241.88
2018-12-17T09:21:49.529Z,213.75
2018-12-17T09:22:49.511Z,292.50
2018-12-17T09:23:49.506Z,309.38
2018-12-17T09:24:49.504Z,337.50
2018-12-17T09:25:49.504Z,365.63
2018-12-17T09:26:49.555Z,438.75
2018-12-17T09:27:49.493Z,433.13
2018-12-17T09:28:49.486Z,613.13
2018-12-17T09:29:49.481Z,551.25
2018-12-17T09:30:49.480Z,596.25
2018-12-17T09:31:49.483Z,793.13
2018-12-17T09:32:49.501Z,2131.88
2018-12-17T09:33:49.464Z,2548.13
2018-12-17T09:34:49.460Z,1805.63
2018-12-17T09:35:49.461Z,1693.13
2018-12-17T09:36:49.460Z,1991.25
2018-12-17T09:37:49.452Z,736.88
2018-12-17T09:38:49.455Z,545.63
2018-12-17T09:39:49.451Z,495.00
2018-12-17T09:40:49.450Z,489.38
2018-12-17T09:41:49.447Z,686.25
2018-12-17T09:42:49.447Z,669.38
2018-12-17T09:43:49.448Z,990.00
2018-12-17T09:44:49.445Z,967.50
2018-12-17T09:45:49.446Z,1293.75
2018-12-17T09:46:49.444Z,1597.50
2018-12-17T09:47:49.458Z,1265.63
2018-12-17T09:48:49.436Z,680.63
2018-12-17T09:49:49.437Z,826.88
2018-12-17T09:50:49.437Z,703.13
2018-12-17T09:51:49.447Z,416.25
2018-12-17T09:52:49.435Z,478.13
2018-12-17T09:53:49.430Z,815.63
2018-12-17T09:54:49.432Z,669.38
2018-12-17T09:55:49.428Z,832.50
2018-12-17T09:56:49.435Z,765.00
2018-12-17T09:57:49.424Z,489.38
2018-12-17T09:58:49.425Z,500.63
2018-12-17T09:59:49.420Z,405.00
2018-12-17T10:00:49.423Z,309.38
2018-12-17T10:01:49.414Z,225.00
2018-12-17T10:02:49.413Z,348.75
2018-12-17T10:03:49.413Z,303.75
2018-12-17T10:04:49.422Z,354.38
2018-12-17T10:05:49.406Z,264.38
2018-12-17T10:06:49.410Z,208.13
2018-12-17T10:07:49.403Z,286.88
2018-12-17T10:08:49.399Z,292.50
2018-12-17T10:09:49.395Z,286.88
2018-12-17T10:10:49.392Z,523.13
2018-12-17T10:11:49.389Z,303.75
2018-12-17T10:12:49.386Z,163.13
2018-12-17T10:13:49.384Z,1372.50
2018-12-17T10:14:49.380Z,219.38
2018-12-17T10:15:49.384Z,270.00
2018-12-17T10:16:49.373Z,455.63
2018-12-17T10:17:49.366Z,309.38
2018-12-17T10:18:49.367Z,511.88
2018-12-17T10:19:49.358Z,1288.13
2018-12-17T10:20:49.358Z,939.38
2018-12-17T10:21:49.358Z,1743.75
2018-12-17T10:22:49.349Z,1276.88
2018-12-17T10:23:49.348Z,1305.00
2018-12-17T10:24:49.347Z,416.25
2018-12-17T10:25:49.341Z,168.75
2018-12-17T10:26:49.341Z,483.75
2018-12-17T10:27:49.332Z,264.38
2018-12-17T10:28:49.339Z,421.88
2018-12-17T10:29:49.326Z,1001.25
2018-12-17T10:30:49.325Z,1265.63
2018-12-17T10:31:49.319Z,551.25
2018-12-17T10:32:49.316Z,191.25
2018-12-17T10:33:49.312Z,1305.00
2018-12-17T10:34:49.321Z,1299.38
2018-12-17T10:35:49.305Z,1282.50
2018-12-17T10:36:49.305Z,1631.25
2018-12-17T10:37:49.298Z,1175.63
2018-12-17T10:38:49.295Z,1293.75
2018-12-17T10:39:49.293Z,810.00
2018-12-17T10:40:49.288Z,343.13
2018-12-17T10:41:49.283Z,596.25
2018-12-17T10:42:49.279Z,427.50
2018-12-17T10:43:49.277Z,871.88
2018-12-17T10:44:49.276Z,315.00
2018-12-17T10:45:49.270Z,1226.25
2018-12-17T10:46:49.266Z,140.63
2018-12-17T10:47:49.265Z,534.38
2018-12-17T10:48:49.268Z,129.38
2018-12-17T10:49:49.267Z,236.25
2018-12-17T10:50:49.252Z,281.25
2018-12-17T10:51:49.253Z,219.38
2018-12-17T10:52:49.247Z,157.50
2018-12-17T10:53:49.240Z,157.50
2018-12-17T10:54:49.235Z,118.13
2018-12-17T10:55:49.240Z,146.25
2018-12-17T10:56:49.229Z,140.63
2018-12-17T10:57:49.222Z,163.13
2018-12-17T10:58:49.219Z,208.13
2018-12-17T10:59:49.247Z,202.50
2018-12-17T11:00:49.223Z,146.25
2018-12-17T11:01:49.221Z,112.50
2018-12-17T11:02:49.215Z,118.13
2018-12-17T11:03:49.196Z,129.38
2018-12-17T11:04:49.196Z,129.38
2018-12-17T11:05:49.187Z,112.50
2018-12-17T11:06:49.191Z,129.38
2018-12-17T11:07:49.179Z,118.13
2018-12-17T11:08:49.177Z,84.38
2018-12-17T11:09:49.169Z,118.13
2018-12-17T11:10:49.166Z,146.25
2018-12-17T11:11:49.165Z,140.63
2018-12-17T11:12:49.152Z,101.25
2018-12-17T11:13:49.146Z,208.13
2018-12-17T11:14:49.142Z,180.00
2018-12-17T11:15:49.135Z,157.50
2018-12-17T11:16:49.130Z,118.13
2018-12-17T11:17:49.130Z,135.00
2018-12-17T11:18:49.119Z,163.13
2018-12-17T11:19:49.132Z,163.13
2018-12-17T11:20:49.135Z,253.13
2018-12-17T11:21:49.107Z,163.13
2018-12-17T11:22:49.100Z,129.38
2018-12-17T11:23:49.094Z,118.13
2018-12-17T11:24:49.087Z,146.25
2018-12-17T11:25:49.090Z,106.88
2018-12-17T11:26:49.083Z,84.38
2018-12-17T11:27:49.075Z,90.00
2018-12-17T11:28:49.065Z,84.38
2018-12-17T11:29:49.063Z,90.00
2018-12-17T11:30:49.058Z,90.00
2018-12-17T11:31:49.048Z,106.88
2018-12-17T11:32:49.046Z,95.63
2018-12-17T11:33:49.045Z,95.63
2018-12-17T11:34:49.034Z,101.25
2018-12-17T11:35:49.029Z,84.38
2018-12-17T11:36:49.022Z,61.88
2018-12-17T11:37:49.018Z,56.25
2018-12-17T11:38:49.011Z,56.25
2018-12-17T11:39:49.026Z,56.25
2018-12-17T11:40:49.018Z,50.63
2018-12-17T11:41:49.009Z,45.00
2018-12-17T11:42:48.989Z,39.38
2018-12-17T11:43:48.984Z,39.38
2018-12-17T11:44:48.982Z,50.63
2018-12-17T11:45:48.976Z,39.38
2018-12-17T11:46:48.965Z,39.38
2018-12-17T11:47:48.966Z,39.38
2018-12-17T11:48:48.964Z,33.75
2018-12-17T11:49:48.952Z,33.75
2018-12-17T11:50:48.946Z,28.13
2018-12-17T11:51:48.940Z,28.13
2018-12-17T11:52:48.937Z,28.13
2018-12-17T11:53:48.931Z,28.13
2018-12-17T11:54:48.924Z,33.75
2018-12-17T11:55:48.946Z,33.75
2018-12-17T11:56:48.915Z,33.75
2018-12-17T11:57:48.905Z,39.38
2018-12-17T11:58:48.914Z,45.00
2018-12-17T11:59:48.893Z,45.00
2018-12-17T12:00:53.730Z,33.75
2018-12-17T12:01:48.884Z,33.75
2018-12-17T12:02:48.877Z,39.38
2018-12-17T12:03:48.873Z,45.00
2018-12-17T12:04:48.868Z,39.38
2018-12-17T12:05:48.861Z,45.00
2018-12-17T12:06:48.856Z,56.25
2018-12-17T12:07:48.850Z,67.50
2018-12-17T12:08:48.850Z,67.50
2018-12-17T12:09:48.858Z,73.13
2018-12-17T12:10:48.853Z,67.50
2018-12-17T12:11:48.825Z,56.25
2018-12-17T12:12:48.822Z,67.50
2018-12-17T12:13:48.817Z,61.88
2018-12-17T12:14:48.806Z,56.25
2018-12-17T12:15:48.803Z,50.63
2018-12-17T12:16:48.798Z,50.63
2018-12-17T12:17:48.794Z,50.63
2018-12-17T12:18:48.784Z,45.00
2018-12-17T12:19:48.779Z,45.00
2018-12-17T12:20:48.775Z,45.00
2018-12-17T12:21:48.766Z,50.63
2018-12-17T12:22:48.761Z,50.63
2018-12-17T12:23:48.759Z,50.63
2018-12-17T12:24:48.749Z,50.63
2018-12-17T12:25:48.744Z,56.25
2018-12-17T12:26:48.734Z,67.50
2018-12-17T12:27:48.736Z,67.50
2018-12-17T12:28:48.724Z,67.50
2018-12-17T12:29:48.723Z,67.50
2018-12-17T12:30:48.711Z,73.13
2018-12-17T12:31:48.735Z,73.13
2018-12-17T12:32:48.703Z,90.00
2018-12-17T12:33:48.693Z,78.75
2018-12-17T12:34:48.687Z,84.38
2018-12-17T12:35:48.681Z,78.75
2018-12-17T12:36:48.676Z,73.13
2018-12-17T12:37:48.668Z,78.75
2018-12-17T12:38:48.661Z,78.75
2018-12-17T12:39:48.652Z,84.38
2018-12-17T12:40:48.647Z,84.38
2018-12-17T12:41:48.641Z,73.13
2018-12-17T12:42:51.762Z,78.75
2018-12-17T12:43:48.648Z,78.75
2018-12-17T12:44:48.644Z,78.75
2018-12-17T12:45:48.622Z,78.75
2018-12-17T12:46:48.673Z,78.75
2018-12-17T12:47:48.614Z,73.13
2018-12-17T12:48:48.595Z,61.88
2018-12-17T12:49:48.592Z,61.88
2018-12-17T12:50:48.584Z,56.25
2018-12-17T12:51:50.181Z,56.25
2018-12-17T12:52:48.569Z,56.25
2018-12-17T12:53:48.585Z,56.25
2018-12-17T12:54:48.559Z,50.63
2018-12-17T12:55:48.551Z,56.25
2018-12-17T12:56:48.542Z,50.63
2018-12-17T12:57:48.537Z,45.00
2018-12-17T12:58:48.529Z,50.63
2018-12-17T12:59:48.521Z,50.63
2018-12-17T13:00:48.518Z,50.63
2018-12-17T13:01:48.515Z,56.25
2018-12-17T13:02:48.503Z,56.25
2018-12-17T13:03:48.495Z,56.25
2018-12-17T13:04:48.488Z,61.88
2018-12-17T13:05:48.480Z,61.88
2018-12-17T13:06:48.478Z,61.88
2018-12-17T13:07:48.471Z,67.50
2018-12-17T13:08:48.472Z,61.88
2018-12-17T13:09:48.454Z,67.50
2018-12-17T13:10:48.448Z,67.50
2018-12-17T13:11:48.463Z,67.50
2018-12-17T13:12:48.444Z,67.50
2018-12-17T13:13:48.443Z,67.50
2018-12-17T13:14:48.422Z,61.88
2018-12-17T13:15:48.469Z,73.13
2018-12-17T13:16:48.416Z,73.13
2018-12-17T13:17:48.756Z,73.13
2018-12-17T13:18:48.393Z,73.13
2018-12-17T13:19:48.630Z,73.13
2018-12-17T13:20:48.382Z,73.13
2018-12-17T13:21:48.379Z,73.13
2018-12-17T13:22:48.367Z,73.13
2018-12-17T13:23:48.358Z,78.75
2018-12-17T13:24:48.351Z,73.13
2018-12-17T13:25:48.347Z,73.13
2018-12-17T13:26:48.338Z,78.75
2018-12-17T13:27:48.331Z,78.75
2018-12-17T13:28:48.329Z,78.75
2018-12-17T13:29:48.321Z,73.13
2018-12-17T13:30:48.314Z,67.50
2018-12-17T13:31:48.314Z,61.88
2018-12-17T13:32:48.296Z,56.25
2018-12-17T13:33:48.288Z,50.63
2018-12-17T13:34:48.286Z,50.63
2018-12-17T13:35:48.275Z,45.00
2018-12-17T13:36:48.269Z,45.00
2018-12-17T13:37:48.281Z,39.38
2018-12-17T13:38:48.271Z,33.75
2018-12-17T13:39:48.250Z,39.38
2018-12-17T13:40:48.267Z,39.38
2018-12-17T13:41:48.234Z,39.38
2018-12-17T13:42:48.228Z,39.38
2018-12-17T13:43:48.230Z,33.75
2018-12-17T13:44:48.213Z,33.75
2018-12-17T13:45:48.236Z,28.13
2018-12-17T13:46:48.219Z,28.13
2018-12-17T13:47:48.207Z,33.75
2018-12-17T13:48:48.183Z,28.13
2018-12-17T13:49:48.241Z,22.50
2018-12-17T13:50:48.233Z,28.13
2018-12-17T13:51:48.160Z,28.13
2018-12-17T13:52:48.217Z,22.50
2018-12-17T13:53:51.803Z,22.50
2018-12-17T13:54:48.156Z,16.88
2018-12-17T13:55:48.257Z,16.88
2018-12-17T13:56:51.825Z,16.88
2018-12-17T13:57:48.118Z,16.88
2018-12-17T14:01:07.325Z,16.88
2018-12-17T14:02:09.708Z,11.25
2018-12-17T14:03:07.338Z,11.25
2018-12-17T14:04:08.240Z,11.25
2018-12-17T14:05:04.307Z,11.25
2018-12-17T14:06:08.658Z,11.25
2018-12-17T14:07:10.223Z,11.25
2018-12-17T14:08:10.771Z,11.25
2018-12-17T14:09:25.714Z,11.25
2018-12-17T14:10:02.869Z,11.25
2018-12-17T14:11:04.882Z,11.25
2018-12-17T14:12:11.924Z,11.25
2018-12-17T14:13:56.661Z,11.25
2018-12-17T14:15:04.328Z,11.25
2018-12-17T14:16:49.498Z,11.25
2018-12-17T14:17:49.283Z,11.25
2018-12-17T14:19:42.218Z,11.25
2018-12-17T14:20:42.093Z,11.25
2018-12-17T14:22:35.153Z,11.25
2018-12-17T14:23:34.940Z,11.25
2018-12-17T14:25:28.443Z,11.25
2018-12-17T14:26:28.391Z,11.25
2018-12-17T14:27:28.301Z,5.63
2018-12-17T14:28:28.458Z,5.63
2018-12-17T14:29:28.470Z,5.63
2018-12-17T14:30:28.247Z,5.63
2018-12-17T14:31:28.984Z,5.63
2018-12-17T14:32:28.211Z,5.63
2018-12-17T14:33:28.204Z,5.63
2018-12-17T14:34:28.172Z,5.63
2018-12-17T14:35:28.081Z,5.63
2018-12-17T14:36:37.333Z,5.63
2018-12-17T14:38:21.855Z,5.63
2018-12-17T14:39:21.734Z,5.63
2018-12-17T14:41:17.173Z,5.63
2018-12-17T14:42:16.889Z,5.63
2018-12-17T14:44:09.965Z,5.63
2018-12-17T14:45:10.301Z,5.63
2018-12-17T14:47:04.277Z,0.00
2018-12-17T14:48:03.654Z,0.00
2018-12-17T14:49:56.751Z,0.00
2018-12-17T14:50:56.510Z,0.00
2018-12-17T14:52:50.098Z,0.00
2018-12-17T14:53:49.994Z,0.00
2018-12-17T14:55:45.373Z,0.00
2018-12-17T14:56:43.379Z,0.00
2018-12-17T14:58:44.093Z,0.00
2018-12-17T14:59:44.255Z,0.00
2018-12-17T15:01:35.741Z,0.00
2018-12-17T15:02:30.173Z,0.00
2018-12-17T15:04:23.348Z,0.00
2018-12-17T15:05:23.063Z,0.00
2018-12-17T15:07:16.059Z,0.00
2018-12-17T15:08:15.937Z,0.00
2018-12-17T15:10:09.971Z,0.00
2018-12-17T15:11:09.856Z,0.00
2018-12-17T15:13:02.906Z,0.00
2018-12-17T15:14:10.550Z,0.00
2018-12-17T15:15:56.788Z,0.00
2018-12-17T15:16:55.750Z,0.00
2018-12-17T15:18:03.027Z,0.00
2018-12-17T15:19:49.123Z,0.00
2018-12-17T15:20:48.828Z,0.00
2018-12-17T15:21:48.724Z,0.00
2018-12-17T15:22:49.062Z,0.00
2018-12-17T15:23:48.671Z,0.00
2018-12-17T15:24:48.623Z,0.00
2018-12-17T15:25:48.613Z,0.00
2018-12-17T15:26:48.618Z,0.00
2018-12-17T15:27:48.605Z,0.00
2018-12-17T15:28:56.346Z,0.00
2018-12-17T15:30:42.354Z,0.00
2018-12-17T15:31:43.171Z,0.00
2018-12-17T15:35:07.249Z,0.00
2018-12-17T15:36:07.316Z,0.00
2018-12-17T15:38:00.719Z,0.00
2018-12-17T15:39:00.543Z,0.00
2018-12-17T15:40:53.506Z,0.00
2018-12-17T15:41:53.443Z,0.00
2018-12-17T15:43:46.391Z,0.00
2018-12-17T15:44:46.238Z,0.00
2018-12-17T15:46:39.585Z,0.00
2018-12-17T15:47:39.564Z,0.00
2018-12-17T15:49:32.590Z,0.00
2018-12-17T15:50:32.513Z,0.00
2018-12-17T15:52:25.530Z,0.00
2018-12-17T15:53:25.427Z,0.00
2018-12-17T15:55:19.040Z,0.00
2018-12-17T15:56:18.700Z,0.00
2018-12-17T15:58:11.735Z,0.00
2018-12-17T15:59:11.736Z,0.00
2018-12-17T16:00:11.525Z,0.00
2018-12-17T16:01:11.539Z,0.00
2018-12-17T16:02:11.472Z,0.00
2018-12-17T16:03:11.432Z,0.00
2018-12-17T16:04:11.467Z,0.00
2018-12-17T16:05:11.421Z,0.00
2018-12-17T16:06:11.450Z,0.00
2018-12-17T16:07:11.407Z,0.00
2018-12-17T16:08:11.397Z,0.00
2018-12-17T16:09:11.380Z,0.00
2018-12-17T16:10:11.386Z,0.00
2018-12-17T16:11:11.371Z,0.00
2018-12-17T16:12:11.361Z,0.00
2018-12-17T16:13:11.353Z,0.00
2018-12-17T16:14:11.375Z,0.00
2018-12-17T16:15:13.045Z,0.00
2018-12-17T16:16:11.329Z,0.00
2018-12-17T16:17:11.367Z,0.00
2018-12-17T16:18:11.337Z,0.00
2018-12-17T16:19:11.308Z,0.00
2018-12-17T16:20:11.301Z,0.00
2018-12-17T16:21:11.291Z,0.00